Mn Pelican — FMLR — position and weather

sailwx.info

Track history (hours):
 
Tides and Currents Weather Stations Pressure Air Temp Water Temp Dewpoint Dewpoint Depression Visibility Wind Speed Wind Dir Waves Ship Positions

Mn Pelican

Last reported at 2015-Jul-05 12:29 UTC. Time now 2015-Jul-05 13:20 UTC.
Position N 43°34' E 010°19'.

Length 155 m; draft 6.2 m.

Type: Ship. MMSI: 228315700.

Date/timePositionNaut miles runAvg speedWind from/ knotsBaromVisibWave heightAir tempDewpointWater temp
2015-Jul-05 12:29N 43°34' E 010°19'0 0.0
2015-Jul-05 11:31N 43°34' E 010°19'0 0.0
2015-Jul-05 10:31N 43°34' E 010°19'0 0.0
2015-Jul-05 09:33N 43°34' E 010°19'0 0.0
2015-Jul-05 08:33N 43°34' E 010°19'0 0.0
2015-Jul-05 07:32N 43°34' E 010°19'0 0.0
2015-Jul-05 06:32N 43°34' E 010°19'0 0.0
2015-Jul-05 05:33N 43°34' E 010°19'4 3.5
2015-Jul-05 04:33N 43°32' E 010°16'1414.0
2015-Jul-05 03:33N 43°19' E 010°08'1717.4
2015-Jul-05 02:34N 43°02' E 010°01'1717.3
2015-Jul-05 01:33N 42°46' E 009°55'1717.1
2015-Jul-05 00:33N 42°28' E 009°53'1817.4
2015-Jul-04 23:32N 42°11' E 009°53'1717.4
2015-Jul-04 22:34N 41°54' E 009°52'1817.4
2015-Jul-04 21:32N 41°36' E 009°52'2517.2
2015-Jul-04 20:04N 41°11' E 009°51'917.4
2015-Jul-04 19:33N 41°03' E 009°45'1212.2
2015-Jul-04 18:33N 40°56' E 009°32'0 0.0
2015-Jul-04 17:33N 40°56' E 009°32'0 0.0
2015-Jul-04 16:33N 40°56' E 009°32'0 0.0
2015-Jul-04 15:33N 40°56' E 009°32'0 0.0
2015-Jul-04 14:33N 40°56' E 009°32'0 0.0
2015-Jul-04 13:33N 40°56' E 009°32'0 0.0
2015-Jul-04 12:33N 40°56' E 009°32'0 0.0
2015-Jul-04 11:33N 40°56' E 009°32'0 0.0
2015-Jul-04 10:33N 40°56' E 009°32'0 0.0
2015-Jul-04 09:33N 40°56' E 009°32'0 0.0
2015-Jul-04 08:33N 40°56' E 009°32'0 0.0
2015-Jul-04 07:33N 40°56' E 009°32'71 8.8
2015-Jul-03 23:30N 42°05' E 009°52'1617.6
2015-Jul-03 22:33N 42°22' E 009°53'1717.4
2015-Jul-03 21:33N 42°39' E 009°54'1817.7
2015-Jul-03 20:34N 42°56' E 009°59'1818.4
2015-Jul-03 19:33N 43°14' E 010°05'1817.9
2015-Jul-03 18:33N 43°31' E 010°14'5 4.9
2015-Jul-03 17:32N 43°34' E 010°19'0 0.0
2015-Jul-03 16:32N 43°34' E 010°19'0 0.0
2015-Jul-03 15:31N 43°34' E 010°19'0 0.0
2015-Jul-03 14:31N 43°34' E 010°19'0 0.0
2015-Jul-03 13:31N 43°34' E 010°19'0 0.0
2015-Jul-03 12:33N 43°34' E 010°19'0 0.0
2015-Jul-03 11:34N 43°34' E 010°19'4 4.3
2015-Jul-03 10:33N 43°31' E 010°15'1918.8
2015-Jul-03 09:33N 43°13' E 010°06'2019.7
2015-Jul-03 08:33N 42°55' E 009°58'2019.9
2015-Jul-03 07:33N 42°35' E 009°52'2419.7
2015-Jul-03 06:19N 42°11' E 009°48'1519.6
2015-Jul-03 05:32N 41°56' E 009°48'1919.3
2015-Jul-03 04:33N 41°37' E 009°47'2519.4
2015-Jul-03 03:15N 41°11' E 009°45'1319.3
2015-Jul-03 02:33N 40°58' E 009°41'2 0.3
2015-Jul-02 20:18N 40°58' E 009°39'1317.8
2015-Jul-02 19:33N 41°10' E 009°47'6920.1
2015-Jul-02 16:07N 42°19' E 009°49'1719.7
2015-Jul-02 15:14N 42°36' E 009°51'1319.6
2015-Jul-02 14:33N 42°49' E 009°55'2019.9
2015-Jul-02 13:34N 43°08' E 010°02'2019.6
2015-Jul-02 12:33N 43°27' E 010°10'10 9.9
2015-Jul-02 11:33N 43°34' E 010°19'0 0.0
2015-Jul-02 10:33N 43°34' E 010°19'0 0.0
2015-Jul-02 09:32N 43°34' E 010°19'0 0.0
2015-Jul-02 08:29N 43°34' E 010°19'0 0.0
2015-Jul-02 07:31N 43°34' E 010°19'0 0.0
2015-Jul-02 06:28N 43°34' E 010°19'0 0.0
2015-Jul-02 05:34N 43°34' E 010°19'3 3.4
2015-Jul-02 04:33N 43°32' E 010°16'7 7.1
2015-Jul-02 03:33N 43°26' E 010°10'1818.5
2015-Jul-02 02:33N 43°08' E 010°03'1818.2
2015-Jul-02 01:33N 42°51' E 009°56'1918.1
2015-Jul-02 00:32N 42°33' E 009°50'3618.3
2015-Jul-01 22:33N 41°57' E 009°46'1817.9
2015-Jul-01 21:33N 41°39' E 009°45'1818.0
2015-Jul-01 20:33N 41°21' E 009°45'1818.5
2015-Jul-01 19:33N 41°02' E 009°44'11 1.4
2015-Jul-01 11:33N 40°56' E 009°32'4 3.1
2015-Jul-01 10:10N 40°57' E 009°38'1016.8
2015-Jul-01 09:33N 41°06' E 009°44'2018.8
2015-Jul-01 08:31N 41°25' E 009°45'5918.3
2015-Jul-01 05:19N 42°24' E 009°51'1418.2
2015-Jul-01 04:33N 42°38' E 009°53'1817.7
2015-Jul-01 03:33N 42°55' E 009°56'1817.7
2015-Jul-01 02:33N 43°12' E 010°04'1818.1
2015-Jul-01 01:34N 43°29' E 010°11'7 7.3
2015-Jul-01 00:32N 43°34' E 010°19'0 0.0
2015-Jun-30 23:32N 43°34' E 010°19'0 0.0
2015-Jun-30 22:31N 43°34' E 010°19'0 0.0
2015-Jun-30 21:28N 43°34' E 010°19'0 0.0
2015-Jun-30 20:33N 43°34' E 010°19'0 0.0
2015-Jun-30 19:30N 43°34' E 010°19'0 0.0
2015-Jun-30 18:33N 43°34' E 010°19'3 3.0
2015-Jun-30 17:33N 43°32' E 010°16'5 5.4
2015-Jun-30 16:33N 43°28' E 010°12'2019.6
2015-Jun-30 15:33N 43°09' E 010°03'2019.7
2015-Jun-30 14:33N 42°50' E 009°57'2019.9
2015-Jun-30 13:33N 42°30' E 009°53'2120.1
2015-Jun-30 12:29N 42°09' E 009°52'1819.8
2015-Jun-30 11:33N 41°50' E 009°52'4619.6
2015-Jun-30 09:13N 41°05' E 009°45'14 1.9
2015-Jun-30 01:26N 41°18' E 009°52'5820.1
2015-Jun-29 22:33N 42°16' E 009°52'2019.7
2015-Jun-29 21:34N 42°36' E 009°52'2019.7
2015-Jun-29 20:33N 42°55' E 009°59'2020.1
2015-Jun-29 19:34N 43°15' E 010°06'1818.3
2015-Jun-29 18:33N 43°32' E 010°15'4 3.6
2015-Jun-29 17:28N 43°34' E 010°19'0 0.0
2015-Jun-29 16:31N 43°34' E 010°19'0 0.0
2015-Jun-29 15:30N 43°34' E 010°19'0 0.0
2015-Jun-29 14:33N 43°34' E 010°19'0 0.0
2015-Jun-29 13:32N 43°34' E 010°19'0 0.0
2015-Jun-29 12:26N 43°34' E 010°19'0 0.0
2015-Jun-29 11:31N 43°34' E 010°19'0 0.0
2015-Jun-29 10:31N 43°34' E 010°19'0 0.0
2015-Jun-29 09:28N 43°34' E 010°19'0 0.0
2015-Jun-29 08:30N 43°34' E 010°19'0 0.0
2015-Jun-29 07:33N 43°34' E 010°19'0 0.0
2015-Jun-29 06:32N 43°34' E 010°19'0 0.0
2015-Jun-29 05:32N 43°34' E 010°19'0 0.0
2015-Jun-29 04:31N 43°34' E 010°19'0 0.0
2015-Jun-29 03:31N 43°34' E 010°19'0 0.0
2015-Jun-29 02:34N 43°34' E 010°19'0 0.0
2015-Jun-29 01:30N 43°34' E 010°19'0 0.0
2015-Jun-29 00:33N 43°34' E 010°19'0 0.0
2015-Jun-28 23:32N 43°34' E 010°19'0 0.0
2015-Jun-28 22:32N 43°34' E 010°19'0 0.0
2015-Jun-28 21:31N 43°34' E 010°19'0 0.0
2015-Jun-28 20:31N 43°34' E 010°19'0 0.0
2015-Jun-28 19:30N 43°34' E 010°19'0 0.0
2015-Jun-28 18:33N 43°34' E 010°19'0 0.0
2015-Jun-28 17:33N 43°34' E 010°19'0 0.0
2015-Jun-28 16:32N 43°34' E 010°19'0 0.0
2015-Jun-28 15:32N 43°34' E 010°19'0 0.0
2015-Jun-28 14:31N 43°34' E 010°19'0 0.0
2015-Jun-28 13:31N 43°34' E 010°19'0 0.0
2015-Jun-28 12:32N 43°34' E 010°19'0 0.0
2015-Jun-28 11:32N 43°34' E 010°19'0 0.0
2015-Jun-28 10:31N 43°34' E 010°19'0 0.0
2015-Jun-28 09:31N 43°34' E 010°19'0 0.0
2015-Jun-28 08:33N 43°34' E 010°19'0 0.0
2015-Jun-28 07:33N 43°34' E 010°19'0 0.0
2015-Jun-28 06:32N 43°34' E 010°19'0 0.0
2015-Jun-28 05:32N 43°34' E 010°19'0 0.3
2015-Jun-28 04:33N 43°34' E 010°19'1010.0
2015-Jun-28 03:33N 43°26' E 010°11'1818.4
2015-Jun-28 02:33N 43°08' E 010°04'1818.3
2015-Jun-28 01:33N 42°51' E 009°57'10917.9
2015-Jun-27 19:29N 41°02' E 009°44'1110.1
2015-Jun-27 18:22N 40°56' E 009°32'0 0.0
2015-Jun-27 16:21N 40°56' E 009°32'0 0.0
2015-Jun-27 15:33N 40°56' E 009°32'0 0.0
2015-Jun-27 14:23N 40°56' E 009°32'0 0.0
2015-Jun-27 13:32N 40°56' E 009°32'0 0.0
2015-Jun-27 12:28N 40°56' E 009°32'0 0.0
2015-Jun-27 11:22N 40°56' E 009°32'11 1.4
2015-Jun-27 03:32N 40°59' E 009°46'6616.2
2015-Jun-26 23:28N 42°04' E 009°53'1717.4
2015-Jun-26 22:29N 42°21' E 009°53'1617.5
2015-Jun-26 21:34N 42°38' E 009°53'1717.4
2015-Jun-26 20:34N 42°54' E 009°59'1717.5
2015-Jun-26 19:34N 43°11' E 010°05'1717.2
2015-Jun-26 18:33N 43°28' E 010°11'9 8.1
2015-Jun-26 17:29N 43°34' E 010°19'0 0.0
2015-Jun-26 16:22N 43°34' E 010°19'0 0.0
2015-Jun-26 15:31N 43°34' E 010°19'0 0.0
2015-Jun-26 14:30N 43°34' E 010°19'0 0.0
2015-Jun-26 13:33N 43°34' E 010°19'0 0.0
2015-Jun-26 12:33N 43°34' E 010°19'0 0.0
2015-Jun-26 11:29N 43°34' E 010°19'4 4.0
2015-Jun-26 10:33N 43°31' E 010°16'1717.3
2015-Jun-26 09:34N 43°15' E 010°07'2019.2
2015-Jun-26 08:32N 42°57' E 009°59'3819.4
2015-Jun-26 06:34N 42°19' E 009°53'1919.3
2015-Jun-26 05:34N 41°59' E 009°52'1919.2
2015-Jun-26 04:33N 41°40' E 009°51'45 5.5
2015-Jun-25 20:27N 40°56' E 009°37'3516.7
2015-Jun-25 18:23N 41°29' E 009°52'8020.2
2015-Jun-25 14:25N 42°49' E 009°57'1720.2
2015-Jun-25 13:34N 43°06' E 010°03'2020.2
2015-Jun-25 12:34N 43°25' E 010°11'  
Track history (hours):
 
Tides and Currents Weather Stations Pressure Air Temp Water Temp Dewpoint Dewpoint Depression Visibility Wind Speed Wind Dir Waves Ship Positions

Mn Pelican

Last reported at 2015-Jul-05 12:29 UTC. Time now 2015-Jul-05 13:20 UTC.
Position N 43°34' E 010°19'.

Length 155 m; draft 6.2 m.

Type: Ship. MMSI: 228315700.

Date/timePositionNaut miles runAvg speedWind from/ knotsBaromVisibWave heightAir tempDewpointWater temp
2015-Jul-05 12:29N 43°34' E 010°19'0 0.0
2015-Jul-05 11:31N 43°34' E 010°19'0 0.0
2015-Jul-05 10:31N 43°34' E 010°19'0 0.0
2015-Jul-05 09:33N 43°34' E 010°19'0 0.0
2015-Jul-05 08:33N 43°34' E 010°19'0 0.0
2015-Jul-05 07:32N 43°34' E 010°19'0 0.0
2015-Jul-05 06:32N 43°34' E 010°19'0 0.0
2015-Jul-05 05:33N 43°34' E 010°19'4 3.5
2015-Jul-05 04:33N 43°32' E 010°16'1414.0
2015-Jul-05 03:33N 43°19' E 010°08'1717.4
2015-Jul-05 02:34N 43°02' E 010°01'1717.3
2015-Jul-05 01:33N 42°46' E 009°55'1717.1
2015-Jul-05 00:33N 42°28' E 009°53'1817.4
2015-Jul-04 23:32N 42°11' E 009°53'1717.4
2015-Jul-04 22:34N 41°54' E 009°52'1817.4
2015-Jul-04 21:32N 41°36' E 009°52'2517.2
2015-Jul-04 20:04N 41°11' E 009°51'917.4
2015-Jul-04 19:33N 41°03' E 009°45'1212.2
2015-Jul-04 18:33N 40°56' E 009°32'0 0.0
2015-Jul-04 17:33N 40°56' E 009°32'0 0.0
2015-Jul-04 16:33N 40°56' E 009°32'0 0.0
2015-Jul-04 15:33N 40°56' E 009°32'0 0.0
2015-Jul-04 14:33N 40°56' E 009°32'0 0.0
2015-Jul-04 13:33N 40°56' E 009°32'0 0.0
2015-Jul-04 12:33N 40°56' E 009°32'0 0.0
2015-Jul-04 11:33N 40°56' E 009°32'0 0.0
2015-Jul-04 10:33N 40°56' E 009°32'0 0.0
2015-Jul-04 09:33N 40°56' E 009°32'0 0.0
2015-Jul-04 08:33N 40°56' E 009°32'0 0.0
2015-Jul-04 07:33N 40°56' E 009°32'71 8.8
2015-Jul-03 23:30N 42°05' E 009°52'1617.6
2015-Jul-03 22:33N 42°22' E 009°53'1717.4
2015-Jul-03 21:33N 42°39' E 009°54'1817.7
2015-Jul-03 20:34N 42°56' E 009°59'1818.4
2015-Jul-03 19:33N 43°14' E 010°05'1817.9
2015-Jul-03 18:33N 43°31' E 010°14'5 4.9
2015-Jul-03 17:32N 43°34' E 010°19'0 0.0
2015-Jul-03 16:32N 43°34' E 010°19'0 0.0
2015-Jul-03 15:31N 43°34' E 010°19'0 0.0
2015-Jul-03 14:31N 43°34' E 010°19'0 0.0
2015-Jul-03 13:31N 43°34' E 010°19'0 0.0
2015-Jul-03 12:33N 43°34' E 010°19'0 0.0
2015-Jul-03 11:34N 43°34' E 010°19'4 4.3
2015-Jul-03 10:33N 43°31' E 010°15'1918.8
2015-Jul-03 09:33N 43°13' E 010°06'2019.7
2015-Jul-03 08:33N 42°55' E 009°58'2019.9
2015-Jul-03 07:33N 42°35' E 009°52'2419.7
2015-Jul-03 06:19N 42°11' E 009°48'1519.6
2015-Jul-03 05:32N 41°56' E 009°48'1919.3
2015-Jul-03 04:33N 41°37' E 009°47'2519.4
2015-Jul-03 03:15N 41°11' E 009°45'1319.3
2015-Jul-03 02:33N 40°58' E 009°41'2 0.3
2015-Jul-02 20:18N 40°58' E 009°39'1317.8
2015-Jul-02 19:33N 41°10' E 009°47'6920.1
2015-Jul-02 16:07N 42°19' E 009°49'1719.7
2015-Jul-02 15:14N 42°36' E 009°51'1319.6
2015-Jul-02 14:33N 42°49' E 009°55'2019.9
2015-Jul-02 13:34N 43°08' E 010°02'2019.6
2015-Jul-02 12:33N 43°27' E 010°10'10 9.9
2015-Jul-02 11:33N 43°34' E 010°19'0 0.0
2015-Jul-02 10:33N 43°34' E 010°19'0 0.0
2015-Jul-02 09:32N 43°34' E 010°19'0 0.0
2015-Jul-02 08:29N 43°34' E 010°19'0 0.0
2015-Jul-02 07:31N 43°34' E 010°19'0 0.0
2015-Jul-02 06:28N 43°34' E 010°19'0 0.0
2015-Jul-02 05:34N 43°34' E 010°19'3 3.4
2015-Jul-02 04:33N 43°32' E 010°16'7 7.1
2015-Jul-02 03:33N 43°26' E 010°10'1818.5
2015-Jul-02 02:33N 43°08' E 010°03'1818.2
2015-Jul-02 01:33N 42°51' E 009°56'1918.1
2015-Jul-02 00:32N 42°33' E 009°50'3618.3
2015-Jul-01 22:33N 41°57' E 009°46'1817.9
2015-Jul-01 21:33N 41°39' E 009°45'1818.0
2015-Jul-01 20:33N 41°21' E 009°45'1818.5
2015-Jul-01 19:33N 41°02' E 009°44'11 1.4
2015-Jul-01 11:33N 40°56' E 009°32'4 3.1
2015-Jul-01 10:10N 40°57' E 009°38'1016.8
2015-Jul-01 09:33N 41°06' E 009°44'2018.8
2015-Jul-01 08:31N 41°25' E 009°45'5918.3
2015-Jul-01 05:19N 42°24' E 009°51'1418.2
2015-Jul-01 04:33N 42°38' E 009°53'1817.7
2015-Jul-01 03:33N 42°55' E 009°56'1817.7
2015-Jul-01 02:33N 43°12' E 010°04'1818.1
2015-Jul-01 01:34N 43°29' E 010°11'7 7.3
2015-Jul-01 00:32N 43°34' E 010°19'0 0.0
2015-Jun-30 23:32N 43°34' E 010°19'0 0.0
2015-Jun-30 22:31N 43°34' E 010°19'0 0.0
2015-Jun-30 21:28N 43°34' E 010°19'0 0.0
2015-Jun-30 20:33N 43°34' E 010°19'0 0.0
2015-Jun-30 19:30N 43°34' E 010°19'0 0.0
2015-Jun-30 18:33N 43°34' E 010°19'3 3.0
2015-Jun-30 17:33N 43°32' E 010°16'5 5.4
2015-Jun-30 16:33N 43°28' E 010°12'2019.6
2015-Jun-30 15:33N 43°09' E 010°03'2019.7
2015-Jun-30 14:33N 42°50' E 009°57'2019.9
2015-Jun-30 13:33N 42°30' E 009°53'2120.1
2015-Jun-30 12:29N 42°09' E 009°52'1819.8
2015-Jun-30 11:33N 41°50' E 009°52'4619.6
2015-Jun-30 09:13N 41°05' E 009°45'14 1.9
2015-Jun-30 01:26N 41°18' E 009°52'5820.1
2015-Jun-29 22:33N 42°16' E 009°52'2019.7
2015-Jun-29 21:34N 42°36' E 009°52'2019.7
2015-Jun-29 20:33N 42°55' E 009°59'2020.1
2015-Jun-29 19:34N 43°15' E 010°06'1818.3
2015-Jun-29 18:33N 43°32' E 010°15'4 3.6
2015-Jun-29 17:28N 43°34' E 010°19'0 0.0
2015-Jun-29 16:31N 43°34' E 010°19'0 0.0
2015-Jun-29 15:30N 43°34' E 010°19'0 0.0
2015-Jun-29 14:33N 43°34' E 010°19'0 0.0
2015-Jun-29 13:32N 43°34' E 010°19'0 0.0
2015-Jun-29 12:26N 43°34' E 010°19'0 0.0
2015-Jun-29 11:31N 43°34' E 010°19'0 0.0
2015-Jun-29 10:31N 43°34' E 010°19'0 0.0
2015-Jun-29 09:28N 43°34' E 010°19'0 0.0
2015-Jun-29 08:30N 43°34' E 010°19'0 0.0
2015-Jun-29 07:33N 43°34' E 010°19'0 0.0
2015-Jun-29 06:32N 43°34' E 010°19'0 0.0
2015-Jun-29 05:32N 43°34' E 010°19'0 0.0
2015-Jun-29 04:31N 43°34' E 010°19'0 0.0
2015-Jun-29 03:31N 43°34' E 010°19'0 0.0
2015-Jun-29 02:34N 43°34' E 010°19'0 0.0
2015-Jun-29 01:30N 43°34' E 010°19'0 0.0
2015-Jun-29 00:33N 43°34' E 010°19'0 0.0
2015-Jun-28 23:32N 43°34' E 010°19'0 0.0
2015-Jun-28 22:32N 43°34' E 010°19'0 0.0
2015-Jun-28 21:31N 43°34' E 010°19'0 0.0
2015-Jun-28 20:31N 43°34' E 010°19'0 0.0
2015-Jun-28 19:30N 43°34' E 010°19'0 0.0
2015-Jun-28 18:33N 43°34' E 010°19'0 0.0
2015-Jun-28 17:33N 43°34' E 010°19'0 0.0
2015-Jun-28 16:32N 43°34' E 010°19'0 0.0
2015-Jun-28 15:32N 43°34' E 010°19'0 0.0
2015-Jun-28 14:31N 43°34' E 010°19'0 0.0
2015-Jun-28 13:31N 43°34' E 010°19'0 0.0
2015-Jun-28 12:32N 43°34' E 010°19'0 0.0
2015-Jun-28 11:32N 43°34' E 010°19'0 0.0
2015-Jun-28 10:31N 43°34' E 010°19'0 0.0
2015-Jun-28 09:31N 43°34' E 010°19'0 0.0
2015-Jun-28 08:33N 43°34' E 010°19'0 0.0
2015-Jun-28 07:33N 43°34' E 010°19'0 0.0
2015-Jun-28 06:32N 43°34' E 010°19'0 0.0
2015-Jun-28 05:32N 43°34' E 010°19'0 0.3
2015-Jun-28 04:33N 43°34' E 010°19'1010.0
2015-Jun-28 03:33N 43°26' E 010°11'1818.4
2015-Jun-28 02:33N 43°08' E 010°04'1818.3
2015-Jun-28 01:33N 42°51' E 009°57'10917.9
2015-Jun-27 19:29N 41°02' E 009°44'1110.1
2015-Jun-27 18:22N 40°56' E 009°32'0 0.0
2015-Jun-27 16:21N 40°56' E 009°32'0 0.0
2015-Jun-27 15:33N 40°56' E 009°32'0 0.0
2015-Jun-27 14:23N 40°56' E 009°32'0 0.0
2015-Jun-27 13:32N 40°56' E 009°32'0 0.0
2015-Jun-27 12:28N 40°56' E 009°32'0 0.0
2015-Jun-27 11:22N 40°56' E 009°32'11 1.4
2015-Jun-27 03:32N 40°59' E 009°46'6616.2
2015-Jun-26 23:28N 42°04' E 009°53'1717.4
2015-Jun-26 22:29N 42°21' E 009°53'1617.5
2015-Jun-26 21:34N 42°38' E 009°53'1717.4
2015-Jun-26 20:34N 42°54' E 009°59'1717.5
2015-Jun-26 19:34N 43°11' E 010°05'1717.2
2015-Jun-26 18:33N 43°28' E 010°11'9 8.1
2015-Jun-26 17:29N 43°34' E 010°19'0 0.0
2015-Jun-26 16:22N 43°34' E 010°19'0 0.0
2015-Jun-26 15:31N 43°34' E 010°19'0 0.0
2015-Jun-26 14:30N 43°34' E 010°19'0 0.0
2015-Jun-26 13:33N 43°34' E 010°19'0 0.0
2015-Jun-26 12:33N 43°34' E 010°19'0 0.0
2015-Jun-26 11:29N 43°34' E 010°19'4 4.0
2015-Jun-26 10:33N 43°31' E 010°16'1717.3
2015-Jun-26 09:34N 43°15' E 010°07'2019.2
2015-Jun-26 08:32N 42°57' E 009°59'3819.4
2015-Jun-26 06:34N 42°19' E 009°53'1919.3
2015-Jun-26 05:34N 41°59' E 009°52'1919.2
2015-Jun-26 04:33N 41°40' E 009°51'45 5.5
2015-Jun-25 20:27N 40°56' E 009°37'3516.7
2015-Jun-25 18:23N 41°29' E 009°52'8020.2
2015-Jun-25 14:25N 42°49' E 009°57'1720.2
2015-Jun-25 13:34N 43°06' E 010°03'2020.2
2015-Jun-25 12:34N 43°25' E 010°11'  

Dump ship's entire track history